createdAt,value
2022-08-16T00:01:54.990Z,5.40
2022-08-16T00:04:22.432Z,4.55
2022-08-16T00:06:48.982Z,3.70
2022-08-16T00:09:15.954Z,3.80
2022-08-16T00:11:43.759Z,3.88
2022-08-16T00:14:15.102Z,4.10
2022-08-16T00:17:05.506Z,4.15
2022-08-16T00:19:41.618Z,4.13
2022-08-16T00:22:13.768Z,3.10
2022-08-16T00:24:44.987Z,4.47
2022-08-16T00:27:13.923Z,4.45
2022-08-16T00:29:41.006Z,5.70
2022-08-16T00:32:07.635Z,4.18
2022-08-16T00:34:43.274Z,5.45
2022-08-16T00:37:17.123Z,4.75
2022-08-16T00:39:45.464Z,3.70
2022-08-16T00:42:14.122Z,6.32
2022-08-16T00:44:57.225Z,3.95
2022-08-16T00:47:24.064Z,4.30
2022-08-16T00:49:56.700Z,6.68
2022-08-16T00:52:30.373Z,3.28
2022-08-16T00:54:58.052Z,6.32
2022-08-16T00:57:24.563Z,3.42
2022-08-16T00:59:58.721Z,3.50
2022-08-16T01:02:31.596Z,3.58
2022-08-16T01:05:10.541Z,3.60
2022-08-16T01:07:51.761Z,3.05
2022-08-16T01:10:32.267Z,3.28
2022-08-16T01:13:05.742Z,2.95
2022-08-16T01:15:33.848Z,6.13
2022-08-16T01:18:02.205Z,5.35
2022-08-16T01:20:32.999Z,4.15
2022-08-16T01:23:13.011Z,3.67
2022-08-16T01:25:45.970Z,4.35
2022-08-16T01:28:30.789Z,2.33
2022-08-16T01:30:58.107Z,3.03
2022-08-16T01:33:25.216Z,3.40
2022-08-16T01:36:09.326Z,3.22
2022-08-16T01:38:49.028Z,2.65
2022-08-16T01:41:24.780Z,3.08
2022-08-16T01:43:53.893Z,2.25
2022-08-16T01:46:37.933Z,2.05
2022-08-16T01:49:08.493Z,1.98
2022-08-16T01:51:39.385Z,3.35
2022-08-16T01:54:06.531Z,5.15
2022-08-16T01:56:34.612Z,3.38
2022-08-16T01:59:02.671Z,4.50
2022-08-16T02:01:29.668Z,2.78
2022-08-16T02:04:11.177Z,3.75
2022-08-16T02:06:39.700Z,3.40
2022-08-16T02:09:13.234Z,4.68
2022-08-16T02:11:47.330Z,3.60
2022-08-16T02:14:18.063Z,1.83
2022-08-16T02:16:47.857Z,3.33
2022-08-16T02:19:16.290Z,3.03
2022-08-16T02:22:09.109Z,3.53
2022-08-16T02:24:31.750Z,3.58
2022-08-16T02:26:59.304Z,3.42
2022-08-16T02:29:31.939Z,2.63
2022-08-16T02:32:03.266Z,2.10
2022-08-16T02:34:34.742Z,2.65
2022-08-16T02:37:04.489Z,2.95
2022-08-16T02:39:33.801Z,2.90
2022-08-16T02:42:00.537Z,2.97
2022-08-16T02:44:28.568Z,3.38
2022-08-16T02:46:55.415Z,3.67
2022-08-16T02:49:23.389Z,2.83
2022-08-16T02:52:10.683Z,2.15
2022-08-16T02:57:11.439Z,3.25
2022-08-16T02:59:41.334Z,4.22
2022-08-16T03:02:10.332Z,3.30
2022-08-16T03:04:50.470Z,2.80
2022-08-16T03:07:27.560Z,4.07
2022-08-16T03:09:54.528Z,2.67
2022-08-16T03:12:21.075Z,4.15
2022-08-16T03:14:57.083Z,5.57
2022-08-16T03:17:23.656Z,2.67
2022-08-16T03:19:59.966Z,2.78
2022-08-16T03:22:29.634Z,2.95
2022-08-16T03:25:01.122Z,4.53
2022-08-16T03:27:31.371Z,3.10
2022-08-16T03:30:16.098Z,1.73
2022-08-16T03:32:45.315Z,4.00
2022-08-16T03:35:14.036Z,1.90
2022-08-16T03:38:03.273Z,2.78
2022-08-16T03:40:33.204Z,2.03
2022-08-16T03:43:19.310Z,2.40
2022-08-16T03:45:46.662Z,4.22
2022-08-16T03:48:15.049Z,2.97
2022-08-16T03:50:59.997Z,4.82
2022-08-16T03:53:37.898Z,4.50
2022-08-16T03:56:05.107Z,2.25
2022-08-16T03:58:33.554Z,7.05
2022-08-16T04:01:00.293Z,2.25
2022-08-16T04:03:27.004Z,2.40
2022-08-16T04:05:56.590Z,3.03
2022-08-16T04:08:24.582Z,2.85
2022-08-16T04:10:54.894Z,1.42
2022-08-16T04:14:00.498Z,1.80
2022-08-16T04:16:09.407Z,2.90
2022-08-16T04:18:54.455Z,5.63
2022-08-16T04:21:29.854Z,1.90
2022-08-16T04:23:56.567Z,3.40
2022-08-16T04:26:23.100Z,3.50
2022-08-16T04:28:56.710Z,1.50
2022-08-16T04:31:36.892Z,2.58
2022-08-16T04:34:04.116Z,0.98
2022-08-16T04:36:30.615Z,1.38
2022-08-16T04:38:59.103Z,3.72
2022-08-16T04:41:32.510Z,1.02
2022-08-16T04:44:00.236Z,1.45
2022-08-16T04:47:00.172Z,0.90
2022-08-16T04:49:13.578Z,1.60
2022-08-16T04:51:43.788Z,1.15
2022-08-16T04:54:20.595Z,1.05
2022-08-16T04:56:48.734Z,1.02
2022-08-16T04:59:15.407Z,0.90
2022-08-16T05:01:58.191Z,2.78
2022-08-16T05:04:25.924Z,3.50
2022-08-16T05:06:56.805Z,1.85
2022-08-16T05:09:24.080Z,2.00
2022-08-16T05:11:50.741Z,2.40
2022-08-16T05:14:42.086Z,2.17
2022-08-16T05:17:04.014Z,1.10
2022-08-16T05:19:36.027Z,0.85
2022-08-16T05:22:03.139Z,1.05
2022-08-16T05:24:29.684Z,2.00
2022-08-16T05:26:56.787Z,1.00
2022-08-16T05:29:24.998Z,1.15
2022-08-16T05:32:31.953Z,0.30
2022-08-16T05:34:56.475Z,0.50
2022-08-16T05:37:24.570Z,0.45
2022-08-16T05:39:51.619Z,1.05
2022-08-16T05:42:22.046Z,0.82
2022-08-16T05:45:02.364Z,1.63
2022-08-16T05:47:33.639Z,0.43
2022-08-16T05:50:10.127Z,1.00
2022-08-16T05:52:46.119Z,1.77
2022-08-16T05:55:13.407Z,0.50
2022-08-16T05:57:39.964Z,0.45
2022-08-16T06:00:10.984Z,1.65
2022-08-16T06:02:37.599Z,0.90
2022-08-16T06:05:04.380Z,0.45
2022-08-16T06:07:31.947Z,0.40
2022-08-16T06:10:00.191Z,6.53
2022-08-16T06:12:28.785Z,0.77
2022-08-16T06:15:00.108Z,1.27
2022-08-16T06:17:42.464Z,0.32
2022-08-16T06:20:13.397Z,0.70
2022-08-16T06:22:40.029Z,0.22
2022-08-16T06:25:07.191Z,0.38
2022-08-16T06:27:39.610Z,1.35
2022-08-16T06:30:08.710Z,1.58
2022-08-16T06:32:38.346Z,0.73
2022-08-16T06:35:10.344Z,0.80
2022-08-16T06:37:37.812Z,0.50
2022-08-16T06:40:05.423Z,2.67
2022-08-16T06:42:47.724Z,2.42
2022-08-16T06:45:15.044Z,0.85
2022-08-16T06:47:53.259Z,1.33
2022-08-16T06:50:29.273Z,2.38
2022-08-16T06:52:59.937Z,0.98
2022-08-16T06:55:34.066Z,0.88
2022-08-16T06:58:01.753Z,0.60
2022-08-16T07:00:35.286Z,1.50
2022-08-16T07:03:27.780Z,0.55
2022-08-16T07:05:54.051Z,2.17
2022-08-16T07:08:20.969Z,0.98
2022-08-16T07:10:47.646Z,2.13
2022-08-16T07:13:17.580Z,0.80
2022-08-16T07:15:59.620Z,0.68
2022-08-16T07:18:27.048Z,3.65
2022-08-16T07:20:53.873Z,1.85
2022-08-16T07:23:21.641Z,1.75
2022-08-16T07:26:04.748Z,1.15
2022-08-16T07:28:31.323Z,2.00
2022-08-16T07:31:00.062Z,1.95
2022-08-16T07:33:52.226Z,3.55
2022-08-16T07:36:14.598Z,0.70
2022-08-16T07:38:49.264Z,2.38
2022-08-16T07:41:16.678Z,2.10
2022-08-16T07:43:43.458Z,3.10
2022-08-16T07:46:39.298Z,1.50
2022-08-16T07:49:02.612Z,1.67
2022-08-16T07:51:32.036Z,1.70
2022-08-16T07:54:02.695Z,1.50
2022-08-16T07:59:17.111Z,0.60
2022-08-16T08:01:44.379Z,2.33
2022-08-16T08:04:13.331Z,2.88
2022-08-16T08:06:40.916Z,1.10
2022-08-16T08:09:07.534Z,1.13
2022-08-16T08:11:34.329Z,0.73
2022-08-16T08:14:03.339Z,1.33
2022-08-16T08:16:31.233Z,0.45
2022-08-16T08:19:01.150Z,1.55
2022-08-16T08:21:58.829Z,0.70
2022-08-16T08:24:16.026Z,0.85
2022-08-16T08:26:43.568Z,0.40
2022-08-16T08:29:12.026Z,1.50
2022-08-16T08:31:42.315Z,1.67
2022-08-16T08:34:08.991Z,0.77
2022-08-16T08:36:39.968Z,1.73
2022-08-16T08:39:13.116Z,2.50
2022-08-16T08:41:42.336Z,1.55
2022-08-16T08:44:28.866Z,1.25
2022-08-16T08:47:00.349Z,2.65
2022-08-16T08:49:50.558Z,0.63
2022-08-16T08:52:35.023Z,1.70
2022-08-16T08:55:09.467Z,2.85
2022-08-16T08:57:39.183Z,0.50
2022-08-16T09:00:13.871Z,0.60
2022-08-16T09:02:42.628Z,1.08
2022-08-16T09:05:15.259Z,2.10
2022-08-16T09:08:00.823Z,1.20
2022-08-16T09:10:29.639Z,0.65
2022-08-16T09:12:56.524Z,1.77
2022-08-16T09:15:23.834Z,1.55
2022-08-16T09:17:54.923Z,0.50
2022-08-16T09:20:23.437Z,3.75
2022-08-16T09:22:52.452Z,4.18
2022-08-16T09:25:23.393Z,1.55
2022-08-16T09:28:02.385Z,2.67
2022-08-16T09:30:43.319Z,2.22
2022-08-16T09:33:12.287Z,0.57
2022-08-16T09:35:39.429Z,0.68
2022-08-16T09:38:09.958Z,1.58
2022-08-16T09:40:43.309Z,1.88
2022-08-16T09:43:21.119Z,0.50
2022-08-16T09:45:58.552Z,0.38
2022-08-16T09:48:44.227Z,1.55
2022-08-16T09:51:12.348Z,2.25
2022-08-16T09:53:38.985Z,1.20
2022-08-16T09:56:15.207Z,2.78
2022-08-16T09:59:03.334Z,3.38
2022-08-16T10:01:31.907Z,2.55
2022-08-16T10:04:02.137Z,1.15
2022-08-16T10:06:33.721Z,1.38
2022-08-16T10:09:05.627Z,1.83
2022-08-16T10:11:51.746Z,2.55
2022-08-16T10:14:19.709Z,1.65
2022-08-16T10:16:48.777Z,1.38
2022-08-16T10:19:19.361Z,2.00
2022-08-16T10:21:46.628Z,1.38
2022-08-16T10:24:28.156Z,1.58
2022-08-16T10:27:18.200Z,1.83
2022-08-16T10:30:00.144Z,2.85
2022-08-16T10:32:30.655Z,1.10
2022-08-16T10:34:58.788Z,1.77
2022-08-16T10:37:35.685Z,3.45
2022-08-16T10:40:14.808Z,0.95
2022-08-16T10:42:54.907Z,3.90
2022-08-16T10:45:21.624Z,4.22
2022-08-16T10:48:00.705Z,1.92
2022-08-16T10:50:30.667Z,1.58
2022-08-16T10:52:59.411Z,5.00
2022-08-16T10:55:45.254Z,2.20
2022-08-16T10:58:16.783Z,1.85
2022-08-16T11:00:46.192Z,1.27
2022-08-16T11:06:00.544Z,6.88
2022-08-16T11:08:35.492Z,2.38
2022-08-16T11:11:06.738Z,1.08
2022-08-16T11:16:26.850Z,3.30
2022-08-16T11:19:05.481Z,2.05
2022-08-16T11:22:23.158Z,1.90
2022-08-16T11:24:39.912Z,2.40
2022-08-16T11:29:56.755Z,3.53
2022-08-16T11:32:32.379Z,4.40
2022-08-16T11:35:13.662Z,3.33
2022-08-16T11:40:33.504Z,1.58
2022-08-16T11:43:04.666Z,4.90
2022-08-16T11:45:33.898Z,5.70
2022-08-16T11:48:01.965Z,1.75
2022-08-16T11:50:28.523Z,4.05
2022-08-16T11:52:55.017Z,6.82
2022-08-16T11:55:23.493Z,5.50
2022-08-16T11:57:51.548Z,3.42
2022-08-16T12:00:33.966Z,3.63
2022-08-16T12:03:10.489Z,3.70
2022-08-16T12:05:38.619Z,7.32
2022-08-16T12:08:07.045Z,3.42
2022-08-16T12:10:36.257Z,1.45
2022-08-16T12:13:03.014Z,3.22
2022-08-16T12:15:30.884Z,2.70
2022-08-16T12:17:57.873Z,2.97
2022-08-16T12:20:30.198Z,1.17
2022-08-16T12:22:56.831Z,3.75
2022-08-16T12:25:26.403Z,1.95
2022-08-16T12:27:55.428Z,1.25
2022-08-16T12:30:27.028Z,2.20
2022-08-16T12:32:59.760Z,3.03
2022-08-16T12:35:29.867Z,3.42
2022-08-16T12:37:57.715Z,2.85
2022-08-16T12:40:29.378Z,2.55
2022-08-16T12:42:58.715Z,3.42
2022-08-16T12:45:26.677Z,5.30
2022-08-16T12:48:35.314Z,3.60
2022-08-16T12:50:59.061Z,2.72
2022-08-16T12:53:31.925Z,2.72
2022-08-16T12:55:58.816Z,4.53
2022-08-16T12:58:48.484Z,4.03
2022-08-16T13:01:12.485Z,3.17
2022-08-16T13:03:41.525Z,3.70
2022-08-16T13:06:08.747Z,4.57
2022-08-16T13:08:35.468Z,7.18
2022-08-16T13:11:03.692Z,4.40
2022-08-16T13:13:31.568Z,3.90
2022-08-16T13:16:00.801Z,5.63
2022-08-16T13:18:33.853Z,5.50
2022-08-16T13:21:01.534Z,5.53
2022-08-16T13:23:30.048Z,3.50
2022-08-16T13:25:57.490Z,7.60
2022-08-16T13:28:24.497Z,3.47
2022-08-16T13:30:53.135Z,6.10
2022-08-16T13:33:26.167Z,5.30
2022-08-16T13:35:58.107Z,6.75
2022-08-16T13:38:25.724Z,5.50
2022-08-16T13:40:56.805Z,5.05
2022-08-16T13:43:26.307Z,6.30
2022-08-16T13:45:53.170Z,5.78
2022-08-16T13:48:25.403Z,7.63
2022-08-16T13:50:56.644Z,6.30
2022-08-16T13:53:24.772Z,7.60
2022-08-16T13:55:58.003Z,9.38
2022-08-16T13:58:36.422Z,8.15
2022-08-16T14:01:12.548Z,5.78
2022-08-16T14:03:40.025Z,8.55
2022-08-16T14:06:11.169Z,5.90
2022-08-16T14:08:42.522Z,5.47
2022-08-16T14:11:11.774Z,7.15
2022-08-16T14:13:38.652Z,6.53
2022-08-16T14:16:12.687Z,8.77
2022-08-16T14:18:52.931Z,6.28
2022-08-16T14:21:19.994Z,5.57
2022-08-16T14:23:48.722Z,7.72
2022-08-16T14:26:15.293Z,6.90
2022-08-16T14:28:41.847Z,3.80
2022-08-16T14:31:09.570Z,7.22
2022-08-16T14:33:36.275Z,8.23
2022-08-16T14:36:04.261Z,4.68
2022-08-16T14:38:37.410Z,5.43
2022-08-16T14:41:10.160Z,8.43
2022-08-16T14:43:37.580Z,3.42
2022-08-16T14:46:07.541Z,10.30
2022-08-16T14:48:34.343Z,4.75
2022-08-16T14:51:01.479Z,5.25
2022-08-16T14:53:28.282Z,4.43
2022-08-16T14:55:54.885Z,10.45
2022-08-16T14:58:34.739Z,6.07
2022-08-16T15:01:04.010Z,6.63
2022-08-16T15:03:33.034Z,7.75
2022-08-16T15:06:00.508Z,6.45
2022-08-16T15:08:36.313Z,9.02
2022-08-16T15:11:03.685Z,6.57
2022-08-16T15:13:30.324Z,7.32
2022-08-16T15:16:02.217Z,5.85
2022-08-16T15:18:31.900Z,6.93
2022-08-16T15:20:59.376Z,7.78
2022-08-16T15:23:25.891Z,9.80
2022-08-16T15:26:03.749Z,8.68
2022-08-16T15:28:32.359Z,9.18
2022-08-16T15:31:03.031Z,8.90
2022-08-16T15:33:32.173Z,4.88
2022-08-16T15:35:59.526Z,8.30
2022-08-16T15:38:57.874Z,5.65
2022-08-16T15:41:29.281Z,12.07
2022-08-16T15:44:05.544Z,10.95
2022-08-16T15:46:54.618Z,7.03
2022-08-16T15:49:22.663Z,7.15
2022-08-16T15:51:51.730Z,10.23
2022-08-16T15:54:29.685Z,7.53
2022-08-16T15:57:00.319Z,11.80
2022-08-16T15:59:29.615Z,7.57
2022-08-16T16:02:16.152Z,4.45
2022-08-16T16:04:47.709Z,6.80
2022-08-16T16:07:14.500Z,11.18
2022-08-16T16:09:41.369Z,7.65
2022-08-16T16:12:43.723Z,6.10
2022-08-16T16:14:58.963Z,12.20
2022-08-16T16:17:26.745Z,7.88
2022-08-16T16:19:55.908Z,7.97
2022-08-16T16:22:22.456Z,7.65
2022-08-16T16:24:52.979Z,11.50
2022-08-16T16:27:21.782Z,14.43
2022-08-16T16:29:57.796Z,10.30
2022-08-16T16:32:34.057Z,11.80
2022-08-16T16:35:01.891Z,8.50
2022-08-16T16:37:28.813Z,14.63
2022-08-16T16:39:56.327Z,7.47
2022-08-16T16:42:29.330Z,7.57
2022-08-16T16:45:01.263Z,6.65
2022-08-16T16:47:29.064Z,12.25
2022-08-16T16:49:55.568Z,8.20
2022-08-16T16:52:43.611Z,6.32
2022-08-16T16:55:09.524Z,8.90
2022-08-16T16:57:55.254Z,5.70
2022-08-16T17:00:30.278Z,3.38
2022-08-16T17:03:05.991Z,5.05
2022-08-16T17:05:54.141Z,10.63
2022-08-16T17:08:25.699Z,9.85
2022-08-16T17:10:53.603Z,7.18
2022-08-16T17:13:20.988Z,16.85
2022-08-16T17:15:52.197Z,7.72
2022-08-16T17:19:17.789Z,5.32
2022-08-16T17:21:06.607Z,8.95
2022-08-16T17:23:59.497Z,8.48
2022-08-16T17:26:19.763Z,5.88
2022-08-16T17:28:59.034Z,9.57
2022-08-16T17:31:38.406Z,5.70
2022-08-16T17:34:30.848Z,8.63
2022-08-16T17:36:54.576Z,9.30
2022-08-16T17:39:21.322Z,7.93
2022-08-16T17:41:50.908Z,8.73
2022-08-16T17:44:19.332Z,7.97
2022-08-16T17:46:52.543Z,11.43
2022-08-16T17:49:19.337Z,10.95
2022-08-16T17:51:45.892Z,8.75
2022-08-16T17:54:16.997Z,10.07
2022-08-16T17:56:56.576Z,13.13
2022-08-16T17:59:24.236Z,14.40
2022-08-16T18:01:50.871Z,12.30
2022-08-16T18:04:48.521Z,13.80
2022-08-16T18:07:05.361Z,12.98
2022-08-16T18:09:31.905Z,8.60
2022-08-16T18:11:58.720Z,13.02
2022-08-16T18:14:52.401Z,9.02
2022-08-16T18:17:12.966Z,10.23
2022-08-16T18:19:39.721Z,7.55
2022-08-16T18:22:18.313Z,10.52
2022-08-16T18:24:45.640Z,6.85
2022-08-16T18:27:25.991Z,8.05
2022-08-16T18:29:53.244Z,11.18
2022-08-16T18:32:22.023Z,13.05
2022-08-16T18:34:51.363Z,11.73
2022-08-16T18:37:17.917Z,5.32
2022-08-16T18:39:44.489Z,10.85
2022-08-16T18:42:12.071Z,11.98
2022-08-16T18:44:40.973Z,13.65
2022-08-16T18:47:07.793Z,12.32
2022-08-16T18:49:35.200Z,7.35
2022-08-16T18:52:02.202Z,8.20
2022-08-16T18:54:30.497Z,10.15
2022-08-16T18:56:58.336Z,14.88
2022-08-16T18:59:29.314Z,10.10
2022-08-16T19:02:00.534Z,10.35
2022-08-16T19:04:56.955Z,8.48
2022-08-16T19:07:18.219Z,11.93
2022-08-16T19:09:44.786Z,8.85
2022-08-16T19:12:11.313Z,11.98
2022-08-16T19:14:42.707Z,13.65
2022-08-16T19:17:11.386Z,10.38
2022-08-16T19:19:37.980Z,13.27
2022-08-16T19:22:06.975Z,13.30
2022-08-16T19:24:33.555Z,9.57
2022-08-16T19:27:01.671Z,10.30
2022-08-16T19:29:28.448Z,9.48
2022-08-16T19:31:55.038Z,12.32
2022-08-16T19:34:21.594Z,11.30
2022-08-16T19:36:48.815Z,10.25
2022-08-16T19:39:15.699Z,13.65
2022-08-16T19:41:44.293Z,12.77
2022-08-16T19:44:10.920Z,12.73
2022-08-16T19:46:38.294Z,14.00
2022-08-16T19:49:05.032Z,8.13
2022-08-16T19:51:31.807Z,14.20
2022-08-16T19:53:58.372Z,17.27
2022-08-16T19:56:26.935Z,10.73
2022-08-16T20:01:42.545Z,6.90
2022-08-16T20:04:12.316Z,12.98
2022-08-16T20:06:39.602Z,7.05
2022-08-16T20:09:06.640Z,12.80
2022-08-16T20:11:34.305Z,10.90
2022-08-16T20:14:00.805Z,14.23
2022-08-16T20:16:27.297Z,8.20
2022-08-16T20:18:53.884Z,9.60
2022-08-16T20:21:20.400Z,8.48
2022-08-16T20:23:46.912Z,14.13
2022-08-16T20:26:13.645Z,8.45
2022-08-16T20:28:53.858Z,8.73
2022-08-16T20:31:24.392Z,15.98
2022-08-16T20:33:51.475Z,9.82
2022-08-16T20:36:17.984Z,12.38
2022-08-16T20:38:47.458Z,14.13
2022-08-16T20:41:14.654Z,10.85
2022-08-16T20:43:41.156Z,8.75
2022-08-16T20:46:07.889Z,14.00
2022-08-16T20:48:34.448Z,12.27
2022-08-16T20:51:00.966Z,6.78
2022-08-16T20:53:27.533Z,11.60
2022-08-16T20:55:54.148Z,17.27
2022-08-16T20:58:20.716Z,11.07
2022-08-16T21:00:47.636Z,12.30
2022-08-16T21:03:14.310Z,10.73
2022-08-16T21:05:40.849Z,16.48
2022-08-16T21:08:52.636Z,10.70
2022-08-16T21:10:54.143Z,11.70
2022-08-16T21:13:21.117Z,9.70
2022-08-16T21:15:47.664Z,13.13
2022-08-16T21:18:14.189Z,8.98
2022-08-16T21:20:40.867Z,11.10
2022-08-16T21:23:08.895Z,11.38
2022-08-16T21:25:36.358Z,10.57
2022-08-16T21:28:40.525Z,12.43
2022-08-16T21:30:52.849Z,11.02
2022-08-16T21:33:19.865Z,13.18
2022-08-16T21:35:47.691Z,11.77
2022-08-16T21:38:29.637Z,10.07
2022-08-16T21:40:57.582Z,11.68
2022-08-16T21:43:25.480Z,14.35
2022-08-16T21:45:55.502Z,12.32
2022-08-16T21:48:34.026Z,10.60
2022-08-16T21:51:03.011Z,12.48
2022-08-16T21:53:29.806Z,15.52
2022-08-16T21:55:57.972Z,12.18
2022-08-16T21:58:24.979Z,8.18
2022-08-16T22:00:51.882Z,9.70
2022-08-16T22:03:21.184Z,9.20
2022-08-16T22:06:05.875Z,10.02
2022-08-16T22:08:35.844Z,8.95
2022-08-16T22:11:13.338Z,10.50
2022-08-16T22:13:40.292Z,11.70
2022-08-16T22:16:08.699Z,7.13
2022-08-16T22:18:35.196Z,10.52
2022-08-16T22:21:01.717Z,6.65
2022-08-16T22:23:28.284Z,12.80
2022-08-16T22:25:55.514Z,10.32
2022-08-16T22:28:22.876Z,9.85
2022-08-16T22:30:49.710Z,10.98
2022-08-16T22:33:18.112Z,10.93
2022-08-16T22:35:46.126Z,8.70
2022-08-16T22:38:56.489Z,8.80
2022-08-16T22:41:00.494Z,9.15
2022-08-16T22:43:27.262Z,7.30
2022-08-16T22:45:54.149Z,5.40
2022-08-16T22:48:20.657Z,8.45
2022-08-16T22:50:47.255Z,5.97
2022-08-16T22:53:14.973Z,13.05
2022-08-16T22:55:42.948Z,9.43
2022-08-16T22:58:09.730Z,8.80
2022-08-16T23:00:36.929Z,5.88
2022-08-16T23:03:05.151Z,12.00
2022-08-16T23:05:35.962Z,9.68
2022-08-16T23:08:03.476Z,10.10
2022-08-16T23:10:30.232Z,7.00
2022-08-16T23:12:58.686Z,8.27
2022-08-16T23:15:26.934Z,9.05
2022-08-16T23:17:55.107Z,8.57
2022-08-16T23:20:24.343Z,9.90
2022-08-16T23:23:18.981Z,7.13
2022-08-16T23:25:40.552Z,10.13
2022-08-16T23:28:07.813Z,8.52
2022-08-16T23:30:38.889Z,6.55
2022-08-16T23:33:12.204Z,6.95
2022-08-16T23:35:45.049Z,8.93
2022-08-16T23:38:38.284Z,9.63
2022-08-16T23:41:00.650Z,9.07
2022-08-16T23:43:31.582Z,6.93
2022-08-16T23:46:03.114Z,9.65
2022-08-16T23:48:31.555Z,9.13
2022-08-16T23:51:19.292Z,10.05
2022-08-16T23:53:46.247Z,6.75
2022-08-16T23:56:15.555Z,10.57
2022-08-16T23:58:43.704Z,11.40
